sensor_id;sensor_type;location;lat;lon;timestamp;pressure;altitude;pressure_sealevel;temperature;humidity
49377;BME280;35253;34.688;33.040;2023-02-10T08:02:55;102054.75;;;12.82;100.00
49377;BME280;35253;34.688;33.040;2023-02-10T08:05:20;102050.63;;;12.75;100.00
49377;BME280;35253;34.688;33.040;2023-02-10T08:07:47;102057.34;;;12.84;100.00
49377;BME280;35253;34.688;33.040;2023-02-10T08:10:12;102047.00;;;12.95;100.00
49377;BME280;35253;34.688;33.040;2023-02-10T08:12:38;102051.25;;;12.99;100.00
49377;BME280;35253;34.688;33.040;2023-02-10T08:15:04;102052.13;;;12.99;100.00
49377;BME280;35253;34.688;33.040;2023-02-10T08:17:30;102056.13;;;13.09;100.00
49377;BME280;35253;34.688;33.040;2023-02-10T08:19:55;102040.75;;;13.15;100.00
49377;BME280;35253;34.688;33.040;2023-02-10T08:22:21;102049.72;;;13.14;100.00
49377;BME280;35253;34.688;33.040;2023-02-10T08:24:46;102035.22;;;13.18;99.84
49377;BME280;35253;34.688;33.040;2023-02-10T08:27:11;102028.94;;;13.19;99.97
49377;BME280;35253;34.688;33.040;2023-02-10T08:29:37;102029.22;;;13.13;99.23
49377;BME280;35253;34.688;33.040;2023-02-10T08:32:02;102024.59;;;12.97;98.50
49377;BME280;35253;34.688;33.040;2023-02-10T08:34:28;102025.69;;;12.93;98.62
49377;BME280;35253;34.688;33.040;2023-02-10T08:36:53;102023.66;;;12.98;98.81
49377;BME280;35253;34.688;33.040;2023-02-10T08:39:19;102023.09;;;13.11;99.60
49377;BME280;35253;34.688;33.040;2023-02-10T08:41:44;102032.13;;;13.27;98.98
49377;BME280;35253;34.688;33.040;2023-02-10T08:44:11;102017.81;;;13.45;98.73
49377;BME280;35253;34.688;33.040;2023-02-10T08:46:37;102024.22;;;13.42;99.57
49377;BME280;35253;34.688;33.040;2023-02-10T08:49:03;102012.53;;;13.43;97.86
49377;BME280;35253;34.688;33.040;2023-02-10T08:51:28;102022.31;;;13.44;96.18
49377;BME280;35253;34.688;33.040;2023-02-10T08:53:55;102016.56;;;13.52;96.03
49377;BME280;35253;34.688;33.040;2023-02-10T08:56:23;102012.41;;;13.64;96.37
49377;BME280;35253;34.688;33.040;2023-02-10T08:58:49;102010.13;;;13.73;95.80
49377;BME280;35253;34.688;33.040;2023-02-10T09:01:19;102011.38;;;13.83;95.55
49377;BME280;35253;34.688;33.040;2023-02-10T09:03:45;102000.34;;;13.89;95.50
49377;BME280;35253;34.688;33.040;2023-02-10T09:06:22;101998.78;;;13.85;96.07
49377;BME280;35253;34.688;33.040;2023-02-10T09:08:48;101994.34;;;14.02;94.16
49377;BME280;35253;34.688;33.040;2023-02-10T09:11:14;101991.19;;;13.93;92.08
49377;BME280;35253;34.688;33.040;2023-02-10T09:13:40;101996.97;;;13.86;91.26
49377;BME280;35253;34.688;33.040;2023-02-10T09:16:05;101990.41;;;13.91;92.59
49377;BME280;35253;34.688;33.040;2023-02-10T09:18:31;101987.00;;;13.88;93.65
49377;BME280;35253;34.688;33.040;2023-02-10T09:21:00;101986.94;;;13.89;94.84
49377;BME280;35253;34.688;33.040;2023-02-10T09:23:26;101981.34;;;13.94;95.87
49377;BME280;35253;34.688;33.040;2023-02-10T09:25:52;101991.19;;;13.93;97.86
49377;BME280;35253;34.688;33.040;2023-02-10T09:28:17;101985.22;;;13.71;99.15
49377;BME280;35253;34.688;33.040;2023-02-10T09:30:43;101973.84;;;13.83;98.75
49377;BME280;35253;34.688;33.040;2023-02-10T09:33:08;101969.28;;;13.68;99.53
49377;BME280;35253;34.688;33.040;2023-02-10T09:35:34;101982.53;;;13.54;100.00
49377;BME280;35253;34.688;33.040;2023-02-10T09:37:59;101980.31;;;13.45;100.00
49377;BME280;35253;34.688;33.040;2023-02-10T09:40:26;101987.00;;;13.53;100.00
49377;BME280;35253;34.688;33.040;2023-02-10T09:43:06;101987.53;;;13.43;100.00
49377;BME280;35253;34.688;33.040;2023-02-10T09:45:37;101973.59;;;13.36;100.00
49377;BME280;35253;34.688;33.040;2023-02-10T09:48:11;101965.00;;;13.30;100.00
49377;BME280;35253;34.688;33.040;2023-02-10T09:50:45;101973.03;;;13.30;100.00
49377;BME280;35253;34.688;33.040;2023-02-10T09:53:16;101970.22;;;13.33;100.00
49377;BME280;35253;34.688;33.040;2023-02-10T09:55:47;101969.56;;;13.28;100.00
49377;BME280;35253;34.688;33.040;2023-02-10T09:58:15;101963.91;;;13.34;100.00
49377;BME280;35253;34.688;33.040;2023-02-10T10:00:43;101964.91;;;13.31;100.00
49377;BME280;35253;34.688;33.040;2023-02-10T10:03:14;101958.84;;;13.28;100.00
49377;BME280;35253;34.688;33.040;2023-02-10T10:08:30;101955.16;;;13.47;100.00
49377;BME280;35253;34.688;33.040;2023-02-10T10:11:03;101949.97;;;13.44;100.00
49377;BME280;35253;34.688;33.040;2023-02-10T10:13:30;101948.97;;;13.47;100.00
49377;BME280;35253;34.688;33.040;2023-02-10T10:20:59;101937.66;;;13.23;100.00
49377;BME280;35253;34.688;33.040;2023-02-10T10:23:36;101933.19;;;13.41;100.00
49377;BME280;35253;34.688;33.040;2023-02-10T10:26:09;101923.81;;;13.49;100.00
49377;BME280;35253;34.688;33.040;2023-02-10T10:28:48;101930.34;;;13.44;100.00
49377;BME280;35253;34.688;33.040;2023-02-10T10:31:28;101928.59;;;13.43;100.00
49377;BME280;35253;34.688;33.040;2023-02-10T10:36:34;101919.09;;;13.54;100.00
49377;BME280;35253;34.688;33.040;2023-02-10T10:39:03;101937.59;;;13.59;100.00
49377;BME280;35253;34.688;33.040;2023-02-10T10:41:34;101930.03;;;13.67;100.00
49377;BME280;35253;34.688;33.040;2023-02-10T10:44:02;101926.56;;;13.48;100.00
49377;BME280;35253;34.688;33.040;2023-02-10T10:46:34;101930.66;;;13.38;100.00
49377;BME280;35253;34.688;33.040;2023-02-10T10:49:01;101921.34;;;13.28;100.00
49377;BME280;35253;34.688;33.040;2023-02-10T10:51:27;101926.00;;;13.24;100.00
49377;BME280;35253;34.688;33.040;2023-02-10T10:53:54;101913.31;;;13.11;100.00
49377;BME280;35253;34.688;33.040;2023-02-10T10:56:30;101918.50;;;13.14;100.00
49377;BME280;35253;34.688;33.040;2023-02-10T10:58:59;101905.53;;;13.04;100.00
49377;BME280;35253;34.688;33.040;2023-02-10T11:01:35;101900.81;;;13.09;100.00
49377;BME280;35253;34.688;33.040;2023-02-10T11:04:20;101895.03;;;13.19;100.00
49377;BME280;35253;34.688;33.040;2023-02-10T11:06:49;101889.91;;;13.31;100.00
49377;BME280;35253;34.688;33.040;2023-02-10T11:09:38;101888.38;;;13.08;100.00
49377;BME280;35253;34.688;33.040;2023-02-10T11:12:02;101893.47;;;13.15;100.00
49377;BME280;35253;34.688;33.040;2023-02-10T11:14:28;101887.31;;;13.13;100.00
49377;BME280;35253;34.688;33.040;2023-02-10T11:16:56;101889.63;;;13.37;100.00
49377;BME280;35253;34.688;33.040;2023-02-10T11:19:27;101888.41;;;13.43;100.00
49377;BME280;35253;34.688;33.040;2023-02-10T11:21:53;101882.44;;;13.38;100.00
49377;BME280;35253;34.688;33.040;2023-02-10T11:24:26;101874.88;;;13.29;100.00
49377;BME280;35253;34.688;33.040;2023-02-10T11:29:20;101879.38;;;13.45;100.00
49377;BME280;35253;34.688;33.040;2023-02-10T11:31:46;101887.25;;;13.48;100.00
49377;BME280;35253;34.688;33.040;2023-02-10T11:36:41;101885.25;;;13.52;100.00
49377;BME280;35253;34.688;33.040;2023-02-10T11:41:44;101881.25;;;13.26;100.00
49377;BME280;35253;34.688;33.040;2023-02-10T11:44:20;101882.56;;;13.52;100.00
49377;BME280;35253;34.688;33.040;2023-02-10T11:46:54;101885.75;;;13.60;100.00
49377;BME280;35253;34.688;33.040;2023-02-10T11:49:20;101884.00;;;13.59;100.00
49377;BME280;35253;34.688;33.040;2023-02-10T11:51:52;101865.63;;;13.51;100.00
49377;BME280;35253;34.688;33.040;2023-02-10T11:54:18;101865.88;;;13.64;100.00
49377;BME280;35253;34.688;33.040;2023-02-10T11:56:50;101869.75;;;13.59;100.00
49377;BME280;35253;34.688;33.040;2023-02-10T12:04:51;101874.88;;;13.46;100.00
49377;BME280;35253;34.688;33.040;2023-02-10T12:07:33;101879.91;;;13.35;100.00
49377;BME280;35253;34.688;33.040;2023-02-10T12:12:40;101875.53;;;12.98;100.00
49377;BME280;35253;34.688;33.040;2023-02-10T12:17:52;101877.56;;;12.93;100.00
49377;BME280;35253;34.688;33.040;2023-02-10T12:33:40;101863.88;;;12.99;100.00
49377;BME280;35253;34.688;33.040;2023-02-10T12:39:03;101870.25;;;12.96;100.00
49377;BME280;35253;34.688;33.040;2023-02-10T12:54:52;101883.38;;;12.84;100.00
49377;BME280;35253;34.688;33.040;2023-02-10T12:57:28;101883.88;;;12.73;100.00
49377;BME280;35253;34.688;33.040;2023-02-10T12:59:56;101881.53;;;12.67;100.00
49377;BME280;35253;34.688;33.040;2023-02-10T13:02:46;101880.63;;;12.85;100.00
49377;BME280;35253;34.688;33.040;2023-02-10T13:05:14;101885.84;;;12.88;100.00
49377;BME280;35253;34.688;33.040;2023-02-10T13:07:51;101881.91;;;12.95;100.00
49377;BME280;35253;34.688;33.040;2023-02-10T13:10:20;101886.78;;;13.04;100.00
49377;BME280;35253;34.688;33.040;2023-02-10T13:12:48;101895.47;;;13.09;100.00
49377;BME280;35253;34.688;33.040;2023-02-10T13:15:24;101891.25;;;13.23;100.00
49377;BME280;35253;34.688;33.040;2023-02-10T13:17:51;101888.44;;;12.90;100.00
49377;BME280;35253;34.688;33.040;2023-02-10T13:23:06;101901.22;;;13.38;100.00
49377;BME280;35253;34.688;33.040;2023-02-10T13:25:43;101893.38;;;13.68;100.00
49377;BME280;35253;34.688;33.040;2023-02-10T13:33:45;101900.25;;;14.22;100.00
49377;BME280;35253;34.688;33.040;2023-02-10T13:36:16;101897.50;;;14.56;100.00
49377;BME280;35253;34.688;33.040;2023-02-10T13:38:42;101892.06;;;15.33;100.00
49377;BME280;35253;34.688;33.040;2023-02-10T13:41:20;101894.09;;;15.59;100.00
49377;BME280;35253;34.688;33.040;2023-02-10T13:44:28;101893.28;;;15.43;100.00
49377;BME280;35253;34.688;33.040;2023-02-10T13:46:54;101888.47;;;15.18;100.00
49377;BME280;35253;34.688;33.040;2023-02-10T13:49:20;101895.28;;;15.69;100.00
49377;BME280;35253;34.688;33.040;2023-02-10T13:51:47;101893.06;;;15.46;100.00
49377;BME280;35253;34.688;33.040;2023-02-10T13:54:24;101887.84;;;15.29;98.28
49377;BME280;35253;34.688;33.040;2023-02-10T13:56:54;101891.31;;;15.61;96.20
49377;BME280;35253;34.688;33.040;2023-02-10T14:02:28;101887.41;;;15.81;95.45
49377;BME280;35253;34.688;33.040;2023-02-10T14:04:41;101892.88;;;15.65;94.69
49377;BME280;35253;34.688;33.040;2023-02-10T14:07:40;101896.94;;;15.86;94.49
49377;BME280;35253;34.688;33.040;2023-02-10T14:12:43;101891.72;;;15.39;98.03
49377;BME280;35253;34.688;33.040;2023-02-10T14:15:19;101889.78;;;15.41;97.67
49377;BME280;35253;34.688;33.040;2023-02-10T14:18:04;101884.22;;;14.84;99.44
49377;BME280;35253;34.688;33.040;2023-02-10T14:20:31;101717.06;;;16.08;98.19
49377;BME280;35253;34.688;33.040;2023-02-10T14:22:57;101816.47;;;15.39;97.04
49377;BME280;35253;34.688;33.040;2023-02-10T14:25:28;101811.94;;;15.84;99.10
49377;BME280;35253;34.688;33.040;2023-02-10T14:27:54;101899.44;;;14.84;98.69
49377;BME280;35253;34.688;33.040;2023-02-10T14:30:24;101911.41;;;14.63;100.00
49377;BME280;35253;34.688;33.040;2023-02-10T14:32:52;101904.22;;;14.15;100.00
49377;BME280;35253;34.688;33.040;2023-02-10T14:35:21;101900.78;;;14.13;100.00
49377;BME280;35253;34.688;33.040;2023-02-10T14:37:51;101900.31;;;13.72;100.00
49377;BME280;35253;34.688;33.040;2023-02-10T14:40:18;101903.72;;;14.08;100.00
49377;BME280;35253;34.688;33.040;2023-02-10T14:42:43;101901.91;;;13.91;100.00
49377;BME280;35253;34.688;33.040;2023-02-10T14:45:20;101909.22;;;13.72;100.00
49377;BME280;35253;34.688;33.040;2023-02-10T14:47:46;101907.31;;;13.57;100.00
49377;BME280;35253;34.688;33.040;2023-02-10T14:50:24;101906.09;;;13.47;100.00
49377;BME280;35253;34.688;33.040;2023-02-10T14:52:49;101909.94;;;13.24;100.00
49377;BME280;35253;34.688;33.040;2023-02-10T14:55:31;101911.69;;;13.06;100.00
49377;BME280;35253;34.688;33.040;2023-02-10T14:58:02;101900.63;;;12.95;100.00
49377;BME280;35253;34.688;33.040;2023-02-10T15:00:29;101901.47;;;12.79;100.00
49377;BME280;35253;34.688;33.040;2023-02-10T15:02:58;101902.50;;;12.76;100.00
49377;BME280;35253;34.688;33.040;2023-02-10T15:05:24;101901.03;;;12.69;100.00
49377;BME280;35253;34.688;33.040;2023-02-10T15:07:52;101906.19;;;12.55;100.00
49377;BME280;35253;34.688;33.040;2023-02-10T15:10:27;101904.25;;;12.40;100.00
49377;BME280;35253;34.688;33.040;2023-02-10T15:12:56;101896.81;;;12.28;100.00
49377;BME280;35253;34.688;33.040;2023-02-10T15:15:26;101911.78;;;12.32;100.00
49377;BME280;35253;34.688;33.040;2023-02-10T15:18:11;101912.84;;;12.28;100.00
49377;BME280;35253;34.688;33.040;2023-02-10T15:20:37;101924.22;;;12.33;100.00
49377;BME280;35253;34.688;33.040;2023-02-10T15:23:05;101921.31;;;12.18;100.00
49377;BME280;35253;34.688;33.040;2023-02-10T15:33:21;101932.78;;;12.02;100.00
49377;BME280;35253;34.688;33.040;2023-02-10T15:36:09;101932.81;;;12.00;100.00
49377;BME280;35253;34.688;33.040;2023-02-10T15:41:18;101942.78;;;11.97;100.00
49377;BME280;35253;34.688;33.040;2023-02-10T15:43:50;101956.22;;;11.95;100.00
49377;BME280;35253;34.688;33.040;2023-02-10T15:46:17;101962.09;;;11.83;100.00
49377;BME280;35253;34.688;33.040;2023-02-10T15:48:42;101956.28;;;11.73;100.00
49377;BME280;35253;34.688;33.040;2023-02-10T15:51:16;101958.41;;;11.65;100.00
49377;BME280;35253;34.688;33.040;2023-02-10T15:53:45;101962.25;;;11.58;100.00
49377;BME280;35253;34.688;33.040;2023-02-10T15:56:11;101960.06;;;11.48;100.00
49377;BME280;35253;34.688;33.040;2023-02-10T15:58:37;101969.00;;;11.47;100.00
49377;BME280;35253;34.688;33.040;2023-02-10T16:01:02;101972.72;;;11.43;100.00
49377;BME280;35253;34.688;33.040;2023-02-10T16:03:27;101971.13;;;11.39;100.00
49377;BME280;35253;34.688;33.040;2023-02-10T16:05:53;101978.44;;;11.34;100.00
49377;BME280;35253;34.688;33.040;2023-02-10T16:08:24;101982.91;;;11.33;100.00
49377;BME280;35253;34.688;33.040;2023-02-10T16:10:50;102000.91;;;11.28;100.00
49377;BME280;35253;34.688;33.040;2023-02-10T16:13:15;101991.75;;;11.35;100.00
49377;BME280;35253;34.688;33.040;2023-02-10T16:15:42;101992.47;;;11.39;100.00
49377;BME280;35253;34.688;33.040;2023-02-10T16:18:08;101995.41;;;11.32;100.00
49377;BME280;35253;34.688;33.040;2023-02-10T16:20:35;101998.56;;;11.42;100.00
49377;BME280;35253;34.688;33.040;2023-02-10T16:23:01;102001.56;;;11.35;100.00
49377;BME280;35253;34.688;33.040;2023-02-10T16:25:26;101998.19;;;11.29;100.00
49377;BME280;35253;34.688;33.040;2023-02-10T16:27:52;101997.88;;;11.37;100.00
49377;BME280;35253;34.688;33.040;2023-02-10T16:30:20;102000.06;;;11.49;100.00
49377;BME280;35253;34.688;33.040;2023-02-10T16:32:46;101999.28;;;11.46;100.00
49377;BME280;35253;34.688;33.040;2023-02-10T16:35:12;101996.31;;;11.53;100.00
49377;BME280;35253;34.688;33.040;2023-02-10T16:37:37;102006.25;;;11.50;100.00
49377;BME280;35253;34.688;33.040;2023-02-10T16:40:03;102012.59;;;11.25;100.00
49377;BME280;35253;34.688;33.040;2023-02-10T16:42:29;102012.97;;;11.38;100.00
49377;BME280;35253;34.688;33.040;2023-02-10T16:44:55;102014.84;;;11.14;100.00
49377;BME280;35253;34.688;33.040;2023-02-10T16:47:20;102013.22;;;11.10;100.00
49377;BME280;35253;34.688;33.040;2023-02-10T16:49:46;102013.81;;;11.18;100.00
49377;BME280;35253;34.688;33.040;2023-02-10T16:52:12;102021.31;;;11.30;100.00
49377;BME280;35253;34.688;33.040;2023-02-10T16:54:38;102022.91;;;11.35;100.00
49377;BME280;35253;34.688;33.040;2023-02-10T16:57:03;102024.09;;;11.27;100.00
49377;BME280;35253;34.688;33.040;2023-02-10T16:59:29;102022.03;;;11.34;100.00
49377;BME280;35253;34.688;33.040;2023-02-10T17:01:56;102027.00;;;11.43;100.00
49377;BME280;35253;34.688;33.040;2023-02-10T17:04:22;102028.75;;;11.44;100.00
49377;BME280;35253;34.688;33.040;2023-02-10T17:06:48;102016.13;;;11.48;100.00
49377;BME280;35253;34.688;33.040;2023-02-10T17:09:15;102015.25;;;11.47;100.00
49377;BME280;35253;34.688;33.040;2023-02-10T17:11:41;102016.28;;;11.45;100.00
49377;BME280;35253;34.688;33.040;2023-02-10T17:14:07;102023.59;;;11.18;100.00
49377;BME280;35253;34.688;33.040;2023-02-10T17:16:36;102023.16;;;11.28;100.00
49377;BME280;35253;34.688;33.040;2023-02-10T17:19:03;102022.03;;;11.34;100.00
49377;BME280;35253;34.688;33.040;2023-02-10T17:21:30;102017.19;;;11.44;100.00
49377;BME280;35253;34.688;33.040;2023-02-10T17:23:55;102016.19;;;11.46;100.00
49377;BME280;35253;34.688;33.040;2023-02-10T17:26:21;102017.75;;;11.52;100.00
49377;BME280;35253;34.688;33.040;2023-02-10T17:28:46;102018.56;;;11.54;100.00
49377;BME280;35253;34.688;33.040;2023-02-10T17:31:16;102023.91;;;11.54;100.00
49377;BME280;35253;34.688;33.040;2023-02-10T17:33:42;102024.56;;;11.59;100.00
49377;BME280;35253;34.688;33.040;2023-02-10T17:36:23;102028.38;;;11.75;100.00
49377;BME280;35253;34.688;33.040;2023-02-10T17:38:49;102026.75;;;11.71;100.00
49377;BME280;35253;34.688;33.040;2023-02-10T17:41:16;102030.47;;;11.67;100.00
49377;BME280;35253;34.688;33.040;2023-02-10T17:43:42;102025.38;;;11.61;100.00
49377;BME280;35253;34.688;33.040;2023-02-10T17:46:09;102021.25;;;11.54;100.00
49377;BME280;35253;34.688;33.040;2023-02-10T17:48:34;102030.97;;;11.55;100.00
49377;BME280;35253;34.688;33.040;2023-02-10T17:51:04;102029.13;;;11.57;100.00
49377;BME280;35253;34.688;33.040;2023-02-10T17:53:32;102025.72;;;11.32;100.00
49377;BME280;35253;34.688;33.040;2023-02-10T17:55:57;102032.53;;;11.39;100.00
49377;BME280;35253;34.688;33.040;2023-02-10T17:58:23;102036.94;;;11.40;100.00
49377;BME280;35253;34.688;33.040;2023-02-10T18:00:49;102033.09;;;11.47;100.00
49377;BME280;35253;34.688;33.040;2023-02-10T18:03:15;102038.88;;;11.36;100.00
49377;BME280;35253;34.688;33.040;2023-02-10T18:05:40;102038.56;;;11.44;100.00
49377;BME280;35253;34.688;33.040;2023-02-10T18:08:11;102025.06;;;11.47;100.00
49377;BME280;35253;34.688;33.040;2023-02-10T18:10:37;102038.47;;;11.45;100.00
49377;BME280;35253;34.688;33.040;2023-02-10T18:13:02;102036.81;;;11.43;100.00
49377;BME280;35253;34.688;33.040;2023-02-10T18:15:28;102034.28;;;11.40;100.00
49377;BME280;35253;34.688;33.040;2023-02-10T18:17:53;102035.81;;;11.45;100.00
49377;BME280;35253;34.688;33.040;2023-02-10T18:20:19;102035.06;;;11.42;100.00
49377;BME280;35253;34.688;33.040;2023-02-10T18:22:45;102022.53;;;11.44;100.00
49377;BME280;35253;34.688;33.040;2023-02-10T18:25:13;102026.28;;;11.40;100.00
49377;BME280;35253;34.688;33.040;2023-02-10T18:27:38;102023.53;;;11.41;100.00
49377;BME280;35253;34.688;33.040;2023-02-10T18:30:04;102029.72;;;11.42;100.00
49377;BME280;35253;34.688;33.040;2023-02-10T18:32:31;102039.84;;;11.34;100.00
49377;BME280;35253;34.688;33.040;2023-02-10T18:34:59;102039.84;;;11.34;100.00
49377;BME280;35253;34.688;33.040;2023-02-10T18:37:25;102035.56;;;11.29;100.00
49377;BME280;35253;34.688;33.040;2023-02-10T18:39:50;102041.78;;;11.30;100.00
49377;BME280;35253;34.688;33.040;2023-02-10T18:42:21;102040.03;;;11.29;100.00
49377;BME280;35253;34.688;33.040;2023-02-10T18:44:47;102043.47;;;11.32;100.00
49377;BME280;35253;34.688;33.040;2023-02-10T18:47:12;102039.25;;;11.27;100.00
49377;BME280;35253;34.688;33.040;2023-02-10T18:49:38;102037.69;;;11.21;100.00
49377;BME280;35253;34.688;33.040;2023-02-10T18:52:03;102037.63;;;11.01;100.00
49377;BME280;35253;34.688;33.040;2023-02-10T18:54:29;102044.13;;;11.38;100.00
49377;BME280;35253;34.688;33.040;2023-02-10T18:56:55;102037.56;;;11.24;100.00
49377;BME280;35253;34.688;33.040;2023-02-10T18:59:20;102044.28;;;11.13;100.00
49377;BME280;35253;34.688;33.040;2023-02-10T19:01:49;102054.94;;;11.13;100.00
49377;BME280;35253;34.688;33.040;2023-02-10T19:04:15;102037.00;;;11.16;100.00
49377;BME280;35253;34.688;33.040;2023-02-10T19:06:40;102041.91;;;11.05;100.00
49377;BME280;35253;34.688;33.040;2023-02-10T19:09:06;102042.56;;;11.10;100.00
49377;BME280;35253;34.688;33.040;2023-02-10T19:11:31;102029.84;;;10.95;100.00
49377;BME280;35253;34.688;33.040;2023-02-10T19:13:57;102025.91;;;10.82;100.00
49377;BME280;35253;34.688;33.040;2023-02-10T19:16:22;102027.94;;;10.75;100.00
49377;BME280;35253;34.688;33.040;2023-02-10T19:18:48;102021.63;;;10.78;100.00
49377;BME280;35253;34.688;33.040;2023-02-10T19:21:14;102034.41;;;10.70;100.00
49377;BME280;35253;34.688;33.040;2023-02-10T19:23:40;102029.75;;;10.75;100.00
49377;BME280;35253;34.688;33.040;2023-02-10T19:26:06;102029.63;;;10.55;100.00
49377;BME280;35253;34.688;33.040;2023-02-10T19:28:32;102037.97;;;10.46;100.00
49377;BME280;35253;34.688;33.040;2023-02-10T19:31:01;102035.84;;;10.55;100.00
49377;BME280;35253;34.688;33.040;2023-02-10T19:33:26;102039.16;;;10.12;100.00
49377;BME280;35253;34.688;33.040;2023-02-10T19:35:52;102029.94;;;10.22;100.00
49377;BME280;35253;34.688;33.040;2023-02-10T19:38:18;102036.69;;;10.32;100.00
49377;BME280;35253;34.688;33.040;2023-02-10T19:40:43;102040.72;;;10.19;100.00
49377;BME280;35253;34.688;33.040;2023-02-10T19:43:09;102034.34;;;10.23;100.00
49377;BME280;35253;34.688;33.040;2023-02-10T19:45:34;102039.25;;;10.35;100.00
49377;BME280;35253;34.688;33.040;2023-02-10T19:48:00;102041.31;;;10.27;100.00
49377;BME280;35253;34.688;33.040;2023-02-10T19:50:25;102024.97;;;10.12;100.00
49377;BME280;35253;34.688;33.040;2023-02-10T19:52:51;102030.19;;;10.15;100.00
49377;BME280;35253;34.688;33.040;2023-02-10T19:55:16;102028.44;;;10.14;100.00
49377;BME280;35253;34.688;33.040;2023-02-10T19:57:42;102023.81;;;10.20;100.00
49377;BME280;35253;34.688;33.040;2023-02-10T20:00:08;102016.38;;;10.28;100.00
49377;BME280;35253;34.688;33.040;2023-02-10T20:02:33;102014.66;;;10.27;100.00
49377;BME280;35253;34.688;33.040;2023-02-10T20:04:59;102021.38;;;10.37;100.00
49377;BME280;35253;34.688;33.040;2023-02-10T20:07:24;102021.19;;;10.44;100.00
49377;BME280;35253;34.688;33.040;2023-02-10T20:09:50;102028.22;;;10.45;100.00
49377;BME280;35253;34.688;33.040;2023-02-10T20:12:15;102021.50;;;10.34;100.00
49377;BME280;35253;34.688;33.040;2023-02-10T20:14:41;102018.59;;;10.17;100.00
49377;BME280;35253;34.688;33.040;2023-02-10T20:17:06;102019.22;;;10.24;100.00
49377;BME280;35253;34.688;33.040;2023-02-10T20:19:32;102022.19;;;10.16;100.00
49377;BME280;35253;34.688;33.040;2023-02-10T20:21:57;102017.13;;;10.07;100.00
49377;BME280;35253;34.688;33.040;2023-02-10T20:24:23;102016.88;;;9.90;100.00
49377;BME280;35253;34.688;33.040;2023-02-10T20:26:48;102016.94;;;10.13;100.00
49377;BME280;35253;34.688;33.040;2023-02-10T20:29:14;102015.97;;;10.16;100.00
49377;BME280;35253;34.688;33.040;2023-02-10T20:31:40;102007.72;;;9.97;100.00
49377;BME280;35253;34.688;33.040;2023-02-10T20:34:06;102014.97;;;10.18;100.00
49377;BME280;35253;34.688;33.040;2023-02-10T20:36:31;102010.31;;;10.00;100.00
49377;BME280;35253;34.688;33.040;2023-02-10T20:39:01;102006.13;;;10.18;100.00
49377;BME280;35253;34.688;33.040;2023-02-10T20:41:28;102009.31;;;10.27;100.00
49377;BME280;35253;34.688;33.040;2023-02-10T20:43:53;102006.44;;;10.33;100.00
49377;BME280;35253;34.688;33.040;2023-02-10T20:46:19;101998.09;;;10.43;100.00
49377;BME280;35253;34.688;33.040;2023-02-10T20:48:45;101996.00;;;10.51;100.00
49377;BME280;35253;34.688;33.040;2023-02-10T20:51:11;102002.59;;;10.64;100.00
49377;BME280;35253;34.688;33.040;2023-02-10T20:53:37;101989.81;;;10.50;100.00
49377;BME280;35253;34.688;33.040;2023-02-10T20:56:03;101994.25;;;10.50;100.00
49377;BME280;35253;34.688;33.040;2023-02-10T20:58:29;101986.00;;;10.57;100.00
49377;BME280;35253;34.688;33.040;2023-02-10T21:01:01;101984.53;;;10.49;100.00
49377;BME280;35253;34.688;33.040;2023-02-10T21:03:27;101981.81;;;10.50;100.00
49377;BME280;35253;34.688;33.040;2023-02-10T21:06:03;101979.94;;;10.29;100.00
49377;BME280;35253;34.688;33.040;2023-02-10T21:08:29;101972.59;;;10.35;100.00
49377;BME280;35253;34.688;33.040;2023-02-10T21:10:54;101975.03;;;10.42;100.00
49377;BME280;35253;34.688;33.040;2023-02-10T21:13:20;101974.78;;;10.48;100.00
49377;BME280;35253;34.688;33.040;2023-02-10T21:15:49;101974.66;;;10.51;100.00
49377;BME280;35253;34.688;33.040;2023-02-10T21:18:14;101970.59;;;10.40;100.00
49377;BME280;35253;34.688;33.040;2023-02-10T21:20:40;101967.72;;;10.47;100.00
49377;BME280;35253;34.688;33.040;2023-02-10T21:23:05;101969.69;;;10.42;100.00
49377;BME280;35253;34.688;33.040;2023-02-10T21:25:30;101966.09;;;10.43;100.00
49377;BME280;35253;34.688;33.040;2023-02-10T21:27:57;101960.63;;;10.46;100.00
49377;BME280;35253;34.688;33.040;2023-02-10T21:30:22;101964.84;;;10.53;100.00
49377;BME280;35253;34.688;33.040;2023-02-10T21:32:50;101955.09;;;10.52;100.00
49377;BME280;35253;34.688;33.040;2023-02-10T21:35:15;101957.88;;;10.49;100.00
49377;BME280;35253;34.688;33.040;2023-02-10T21:37:40;101951.31;;;10.57;100.00
49377;BME280;35253;34.688;33.040;2023-02-10T21:40:06;101953.47;;;10.48;100.00
49377;BME280;35253;34.688;33.040;2023-02-10T21:42:32;101949.88;;;10.49;100.00
49377;BME280;35253;34.688;33.040;2023-02-10T21:44:57;101943.84;;;10.44;100.00
49377;BME280;35253;34.688;33.040;2023-02-10T21:47:23;101935.38;;;10.56;100.00
49377;BME280;35253;34.688;33.040;2023-02-10T21:49:49;101939.13;;;10.50;100.00
49377;BME280;35253;34.688;33.040;2023-02-10T21:52:15;101941.06;;;10.47;100.00
49377;BME280;35253;34.688;33.040;2023-02-10T21:54:41;101939.50;;;10.41;100.00
49377;BME280;35253;34.688;33.040;2023-02-10T21:57:06;101934.91;;;10.45;100.00
49377;BME280;35253;34.688;33.040;2023-02-10T21:59:33;101933.59;;;10.33;100.00